sensor_id;sensor_type;location;lat;lon;timestamp;P1;durP1;ratioP1;P2;durP2;ratioP2
20711;SDS011;10517;50.742;4.224;2023-07-31T00:01:59;9.95;;;6.60;;
20711;SDS011;10517;50.742;4.224;2023-07-31T00:04:25;16.02;;;5.32;;
20711;SDS011;10517;50.742;4.224;2023-07-31T00:06:50;6.35;;;5.32;;
20711;SDS011;10517;50.742;4.224;2023-07-31T00:09:16;8.38;;;5.32;;
20711;SDS011;10517;50.742;4.224;2023-07-31T00:11:41;14.15;;;5.22;;
20711;SDS011;10517;50.742;4.224;2023-07-31T00:14:07;13.00;;;5.22;;
20711;SDS011;10517;50.742;4.224;2023-07-31T00:16:33;13.90;;;5.00;;
20711;SDS011;10517;50.742;4.224;2023-07-31T00:18:58;16.52;;;5.43;;
20711;SDS011;10517;50.742;4.224;2023-07-31T00:21:24;12.18;;;5.10;;
20711;SDS011;10517;50.742;4.224;2023-07-31T00:23:49;6.65;;;4.45;;
20711;SDS011;10517;50.742;4.224;2023-07-31T00:26:15;11.88;;;5.95;;
20711;SDS011;10517;50.742;4.224;2023-07-31T00:28:41;7.28;;;4.38;;
20711;SDS011;10517;50.742;4.224;2023-07-31T00:31:06;9.60;;;5.55;;
20711;SDS011;10517;50.742;4.224;2023-07-31T00:33:34;8.35;;;5.32;;
20711;SDS011;10517;50.742;4.224;2023-07-31T00:35:59;8.40;;;4.57;;
20711;SDS011;10517;50.742;4.224;2023-07-31T00:38:25;7.63;;;4.82;;
20711;SDS011;10517;50.742;4.224;2023-07-31T00:40:51;7.78;;;5.53;;
20711;SDS011;10517;50.742;4.224;2023-07-31T00:43:16;7.03;;;4.88;;
20711;SDS011;10517;50.742;4.224;2023-07-31T00:45:42;11.88;;;6.40;;
20711;SDS011;10517;50.742;4.224;2023-07-31T00:48:07;11.88;;;6.30;;
20711;SDS011;10517;50.742;4.224;2023-07-31T00:50:33;8.10;;;5.45;;
20711;SDS011;10517;50.742;4.224;2023-07-31T00:53:00;7.22;;;5.25;;
20711;SDS011;10517;50.742;4.224;2023-07-31T00:55:25;6.28;;;5.53;;
20711;SDS011;10517;50.742;4.224;2023-07-31T00:57:51;12.02;;;5.80;;
20711;SDS011;10517;50.742;4.224;2023-07-31T01:00:18;9.13;;;5.93;;
20711;SDS011;10517;50.742;4.224;2023-07-31T01:02:44;13.90;;;5.07;;
20711;SDS011;10517;50.742;4.224;2023-07-31T01:05:10;12.73;;;5.65;;
20711;SDS011;10517;50.742;4.224;2023-07-31T01:07:49;12.48;;;5.15;;
20711;SDS011;10517;50.742;4.224;2023-07-31T01:10:26;9.48;;;5.45;;
20711;SDS011;10517;50.742;4.224;2023-07-31T01:12:55;8.23;;;6.10;;
20711;SDS011;10517;50.742;4.224;2023-07-31T01:15:22;8.48;;;4.90;;
20711;SDS011;10517;50.742;4.224;2023-07-31T01:17:48;9.93;;;6.57;;
20711;SDS011;10517;50.742;4.224;2023-07-31T01:20:15;10.18;;;5.63;;
20711;SDS011;10517;50.742;4.224;2023-07-31T01:28:19;21.67;;;6.43;;
20711;SDS011;10517;50.742;4.224;2023-07-31T01:30:48;9.50;;;6.55;;
20711;SDS011;10517;50.742;4.224;2023-07-31T01:33:15;11.52;;;6.32;;
20711;SDS011;10517;50.742;4.224;2023-07-31T01:35:42;15.45;;;5.93;;
20711;SDS011;10517;50.742;4.224;2023-07-31T01:38:10;10.20;;;6.20;;
20711;SDS011;10517;50.742;4.224;2023-07-31T01:40:35;9.88;;;5.50;;
20711;SDS011;10517;50.742;4.224;2023-07-31T01:43:01;8.38;;;7.03;;
20711;SDS011;10517;50.742;4.224;2023-07-31T01:45:26;8.45;;;5.53;;
20711;SDS011;10517;50.742;4.224;2023-07-31T01:47:52;10.75;;;6.45;;
20711;SDS011;10517;50.742;4.224;2023-07-31T01:50:18;12.00;;;5.45;;
20711;SDS011;10517;50.742;4.224;2023-07-31T01:52:43;7.10;;;6.40;;
20711;SDS011;10517;50.742;4.224;2023-07-31T01:55:09;12.38;;;5.82;;
20711;SDS011;10517;50.742;4.224;2023-07-31T01:57:36;7.68;;;6.68;;
20711;SDS011;10517;50.742;4.224;2023-07-31T02:00:02;6.25;;;5.30;;
20711;SDS011;10517;50.742;4.224;2023-07-31T02:02:28;7.88;;;7.15;;
20711;SDS011;10517;50.742;4.224;2023-07-31T02:04:53;9.10;;;6.45;;
20711;SDS011;10517;50.742;4.224;2023-07-31T02:07:19;12.07;;;7.22;;
20711;SDS011;10517;50.742;4.224;2023-07-31T02:09:44;7.25;;;5.88;;
20711;SDS011;10517;50.742;4.224;2023-07-31T02:12:11;10.85;;;6.18;;
20711;SDS011;10517;50.742;4.224;2023-07-31T02:14:39;6.60;;;5.68;;
20711;SDS011;10517;50.742;4.224;2023-07-31T02:17:05;8.13;;;6.72;;
20711;SDS011;10517;50.742;4.224;2023-07-31T02:19:31;7.43;;;5.75;;
20711;SDS011;10517;50.742;4.224;2023-07-31T02:21:56;5.70;;;5.20;;
20711;SDS011;10517;50.742;4.224;2023-07-31T02:24:22;8.57;;;5.70;;
20711;SDS011;10517;50.742;4.224;2023-07-31T02:26:48;8.55;;;6.53;;
20711;SDS011;10517;50.742;4.224;2023-07-31T02:29:13;10.35;;;5.50;;
20711;SDS011;10517;50.742;4.224;2023-07-31T02:31:39;6.53;;;5.35;;
20711;SDS011;10517;50.742;4.224;2023-07-31T02:34:04;5.90;;;5.30;;
20711;SDS011;10517;50.742;4.224;2023-07-31T02:36:30;9.55;;;5.55;;
20711;SDS011;10517;50.742;4.224;2023-07-31T02:38:55;5.43;;;5.00;;
20711;SDS011;10517;50.742;4.224;2023-07-31T02:41:21;7.38;;;5.10;;
20711;SDS011;10517;50.742;4.224;2023-07-31T02:43:47;5.82;;;4.88;;
20711;SDS011;10517;50.742;4.224;2023-07-31T02:46:12;8.00;;;4.95;;
20711;SDS011;10517;50.742;4.224;2023-07-31T02:48:38;6.47;;;4.47;;
20711;SDS011;10517;50.742;4.224;2023-07-31T02:51:03;5.22;;;4.72;;
20711;SDS011;10517;50.742;4.224;2023-07-31T02:53:29;6.95;;;5.00;;
20711;SDS011;10517;50.742;4.224;2023-07-31T02:55:54;8.48;;;5.45;;
20711;SDS011;10517;50.742;4.224;2023-07-31T02:58:20;5.72;;;5.32;;
20711;SDS011;10517;50.742;4.224;2023-07-31T03:00:45;6.13;;;4.47;;
20711;SDS011;10517;50.742;4.224;2023-07-31T03:03:11;6.03;;;4.55;;
20711;SDS011;10517;50.742;4.224;2023-07-31T03:05:37;4.82;;;4.15;;
20711;SDS011;10517;50.742;4.224;2023-07-31T03:08:02;6.72;;;3.97;;
20711;SDS011;10517;50.742;4.224;2023-07-31T03:10:28;11.05;;;5.90;;
20711;SDS011;10517;50.742;4.224;2023-07-31T03:12:54;8.73;;;5.63;;
20711;SDS011;10517;50.742;4.224;2023-07-31T03:15:20;13.23;;;6.20;;
20711;SDS011;10517;50.742;4.224;2023-07-31T03:17:45;8.30;;;5.30;;
20711;SDS011;10517;50.742;4.224;2023-07-31T03:20:11;6.20;;;4.97;;
20711;SDS011;10517;50.742;4.224;2023-07-31T03:22:36;10.10;;;4.88;;
20711;SDS011;10517;50.742;4.224;2023-07-31T03:25:03;8.45;;;4.82;;
20711;SDS011;10517;50.742;4.224;2023-07-31T03:27:29;7.85;;;5.13;;
20711;SDS011;10517;50.742;4.224;2023-07-31T03:29:54;5.47;;;4.88;;
20711;SDS011;10517;50.742;4.224;2023-07-31T03:32:20;11.23;;;5.80;;
20711;SDS011;10517;50.742;4.224;2023-07-31T03:34:46;8.40;;;5.32;;
20711;SDS011;10517;50.742;4.224;2023-07-31T03:37:11;9.10;;;5.38;;
20711;SDS011;10517;50.742;4.224;2023-07-31T03:39:37;6.90;;;4.95;;
20711;SDS011;10517;50.742;4.224;2023-07-31T03:42:03;7.55;;;5.78;;
20711;SDS011;10517;50.742;4.224;2023-07-31T03:44:29;8.73;;;5.38;;
20711;SDS011;10517;50.742;4.224;2023-07-31T03:46:54;8.07;;;6.25;;
20711;SDS011;10517;50.742;4.224;2023-07-31T03:49:20;7.35;;;5.80;;
20711;SDS011;10517;50.742;4.224;2023-07-31T03:51:45;9.90;;;5.60;;
20711;SDS011;10517;50.742;4.224;2023-07-31T03:54:11;5.35;;;4.85;;
20711;SDS011;10517;50.742;4.224;2023-07-31T03:56:38;6.18;;;5.50;;
20711;SDS011;10517;50.742;4.224;2023-07-31T03:59:03;8.65;;;5.60;;
20711;SDS011;10517;50.742;4.224;2023-07-31T04:01:29;6.50;;;5.80;;
20711;SDS011;10517;50.742;4.224;2023-07-31T04:03:54;7.40;;;5.18;;
20711;SDS011;10517;50.742;4.224;2023-07-31T04:06:20;9.57;;;4.35;;
20711;SDS011;10517;50.742;4.224;2023-07-31T04:08:45;4.43;;;4.10;;
20711;SDS011;10517;50.742;4.224;2023-07-31T04:11:11;7.55;;;4.55;;
20711;SDS011;10517;50.742;4.224;2023-07-31T04:13:40;5.80;;;4.25;;
20711;SDS011;10517;50.742;4.224;2023-07-31T04:16:05;4.85;;;4.45;;
20711;SDS011;10517;50.742;4.224;2023-07-31T04:18:31;4.85;;;3.08;;
20711;SDS011;10517;50.742;4.224;2023-07-31T04:20:57;3.08;;;2.88;;
20711;SDS011;10517;50.742;4.224;2023-07-31T04:23:26;2.53;;;2.42;;
20711;SDS011;10517;50.742;4.224;2023-07-31T04:25:52;2.40;;;2.30;;
20711;SDS011;10517;50.742;4.224;2023-07-31T04:28:17;2.65;;;2.53;;
20711;SDS011;10517;50.742;4.224;2023-07-31T04:30:43;2.92;;;2.72;;
20711;SDS011;10517;50.742;4.224;2023-07-31T04:33:08;2.42;;;2.33;;
20711;SDS011;10517;50.742;4.224;2023-07-31T04:35:34;3.20;;;3.00;;
20711;SDS011;10517;50.742;4.224;2023-07-31T04:37:59;2.58;;;2.47;;
20711;SDS011;10517;50.742;4.224;2023-07-31T04:40:25;2.42;;;2.33;;
20711;SDS011;10517;50.742;4.224;2023-07-31T04:42:51;2.20;;;2.10;;
20711;SDS011;10517;50.742;4.224;2023-07-31T04:45:16;2.25;;;2.15;;
20711;SDS011;10517;50.742;4.224;2023-07-31T04:47:42;2.83;;;2.70;;
20711;SDS011;10517;50.742;4.224;2023-07-31T04:50:08;2.85;;;2.75;;
20711;SDS011;10517;50.742;4.224;2023-07-31T04:52:33;3.28;;;3.08;;
20711;SDS011;10517;50.742;4.224;2023-07-31T04:54:59;2.40;;;2.30;;
20711;SDS011;10517;50.742;4.224;2023-07-31T04:57:25;2.63;;;2.53;;
20711;SDS011;10517;50.742;4.224;2023-07-31T04:59:50;2.30;;;2.20;;
20711;SDS011;10517;50.742;4.224;2023-07-31T05:02:16;2.40;;;2.33;;
20711;SDS011;10517;50.742;4.224;2023-07-31T05:04:41;2.40;;;2.30;;
20711;SDS011;10517;50.742;4.224;2023-07-31T05:07:07;1.90;;;1.88;;
20711;SDS011;10517;50.742;4.224;2023-07-31T05:09:32;2.88;;;2.72;;
20711;SDS011;10517;50.742;4.224;2023-07-31T05:11:58;2.83;;;2.72;;
20711;SDS011;10517;50.742;4.224;2023-07-31T05:14:25;2.10;;;2.05;;
20711;SDS011;10517;50.742;4.224;2023-07-31T05:16:51;2.60;;;2.50;;
20711;SDS011;10517;50.742;4.224;2023-07-31T05:19:17;4.25;;;3.40;;
20711;SDS011;10517;50.742;4.224;2023-07-31T05:21:42;3.38;;;3.28;;
20711;SDS011;10517;50.742;4.224;2023-07-31T05:24:08;3.92;;;3.72;;
20711;SDS011;10517;50.742;4.224;2023-07-31T05:26:35;3.67;;;3.58;;
20711;SDS011;10517;50.742;4.224;2023-07-31T05:29:00;3.60;;;3.50;;
20711;SDS011;10517;50.742;4.224;2023-07-31T05:31:26;3.47;;;3.38;;
20711;SDS011;10517;50.742;4.224;2023-07-31T05:33:52;3.60;;;3.50;;
20711;SDS011;10517;50.742;4.224;2023-07-31T05:36:17;3.47;;;3.38;;
20711;SDS011;10517;50.742;4.224;2023-07-31T05:38:43;3.70;;;3.60;;
20711;SDS011;10517;50.742;4.224;2023-07-31T05:41:11;3.45;;;3.35;;
20711;SDS011;10517;50.742;4.224;2023-07-31T05:43:37;3.28;;;3.17;;
20711;SDS011;10517;50.742;4.224;2023-07-31T05:46:03;3.03;;;2.92;;
20711;SDS011;10517;50.742;4.224;2023-07-31T05:48:29;3.28;;;3.17;;
20711;SDS011;10517;50.742;4.224;2023-07-31T05:50:54;3.00;;;2.90;;
20711;SDS011;10517;50.742;4.224;2023-07-31T05:53:20;4.13;;;3.83;;
20711;SDS011;10517;50.742;4.224;2023-07-31T05:55:45;3.70;;;3.42;;
20711;SDS011;10517;50.742;4.224;2023-07-31T05:58:11;2.92;;;2.83;;
20711;SDS011;10517;50.742;4.224;2023-07-31T06:00:37;2.78;;;2.67;;
20711;SDS011;10517;50.742;4.224;2023-07-31T06:03:02;2.30;;;2.30;;
20711;SDS011;10517;50.742;4.224;2023-07-31T06:05:28;4.20;;;3.63;;
20711;SDS011;10517;50.742;4.224;2023-07-31T06:07:54;2.70;;;2.60;;
20711;SDS011;10517;50.742;4.224;2023-07-31T06:10:20;3.30;;;3.20;;
20711;SDS011;10517;50.742;4.224;2023-07-31T06:12:46;3.13;;;2.95;;
20711;SDS011;10517;50.742;4.224;2023-07-31T06:15:12;10.00;;;3.97;;
20711;SDS011;10517;50.742;4.224;2023-07-31T06:17:37;2.35;;;2.35;;
20711;SDS011;10517;50.742;4.224;2023-07-31T06:20:03;2.78;;;2.67;;
20711;SDS011;10517;50.742;4.224;2023-07-31T06:22:32;4.22;;;3.28;;
20711;SDS011;10517;50.742;4.224;2023-07-31T06:24:58;2.80;;;2.70;;
20711;SDS011;10517;50.742;4.224;2023-07-31T06:27:23;2.13;;;2.03;;
20711;SDS011;10517;50.742;4.224;2023-07-31T06:29:49;1.80;;;1.80;;
20711;SDS011;10517;50.742;4.224;2023-07-31T06:32:14;2.22;;;1.90;;
20711;SDS011;10517;50.742;4.224;2023-07-31T06:34:40;3.88;;;3.67;;
20711;SDS011;10517;50.742;4.224;2023-07-31T06:37:06;2.47;;;2.38;;
20711;SDS011;10517;50.742;4.224;2023-07-31T06:39:31;7.72;;;2.45;;
20711;SDS011;10517;50.742;4.224;2023-07-31T06:41:57;1.70;;;1.70;;
20711;SDS011;10517;50.742;4.224;2023-07-31T06:44:22;2.33;;;2.22;;
20711;SDS011;10517;50.742;4.224;2023-07-31T06:46:48;2.15;;;1.92;;
20711;SDS011;10517;50.742;4.224;2023-07-31T06:49:13;1.50;;;1.50;;
20711;SDS011;10517;50.742;4.224;2023-07-31T06:51:42;1.25;;;1.10;;
20711;SDS011;10517;50.742;4.224;2023-07-31T06:54:09;4.22;;;3.47;;
20711;SDS011;10517;50.742;4.224;2023-07-31T06:56:34;0.90;;;0.90;;
20711;SDS011;10517;50.742;4.224;2023-07-31T06:59:00;1.33;;;1.23;;
20711;SDS011;10517;50.742;4.224;2023-07-31T07:01:26;4.45;;;1.00;;
20711;SDS011;10517;50.742;4.224;2023-07-31T07:03:52;1.83;;;1.70;;
20711;SDS011;10517;50.742;4.224;2023-07-31T07:06:18;1.10;;;1.10;;
20711;SDS011;10517;50.742;4.224;2023-07-31T07:08:44;1.65;;;1.42;;
20711;SDS011;10517;50.742;4.224;2023-07-31T07:11:10;1.98;;;1.88;;
20711;SDS011;10517;50.742;4.224;2023-07-31T07:13:35;1.10;;;1.05;;
20711;SDS011;10517;50.742;4.224;2023-07-31T07:16:01;1.85;;;1.70;;
20711;SDS011;10517;50.742;4.224;2023-07-31T07:18:27;0.70;;;0.70;;
20711;SDS011;10517;50.742;4.224;2023-07-31T07:20:53;2.67;;;2.35;;
20711;SDS011;10517;50.742;4.224;2023-07-31T07:23:19;3.33;;;1.67;;
20711;SDS011;10517;50.742;4.224;2023-07-31T07:25:46;0.95;;;0.95;;
20711;SDS011;10517;50.742;4.224;2023-07-31T07:28:12;0.80;;;0.80;;
20711;SDS011;10517;50.742;4.224;2023-07-31T07:30:39;0.77;;;0.77;;
20711;SDS011;10517;50.742;4.224;2023-07-31T07:33:05;1.85;;;0.93;;
20711;SDS011;10517;50.742;4.224;2023-07-31T07:35:34;2.17;;;1.98;;
20711;SDS011;10517;50.742;4.224;2023-07-31T07:38:00;0.90;;;0.90;;
20711;SDS011;10517;50.742;4.224;2023-07-31T07:40:26;2.03;;;0.80;;
20711;SDS011;10517;50.742;4.224;2023-07-31T07:42:52;1.00;;;1.00;;
20711;SDS011;10517;50.742;4.224;2023-07-31T07:45:17;0.88;;;0.88;;
20711;SDS011;10517;50.742;4.224;2023-07-31T07:47:43;0.80;;;0.80;;
20711;SDS011;10517;50.742;4.224;2023-07-31T07:50:08;1.98;;;1.88;;
20711;SDS011;10517;50.742;4.224;2023-07-31T07:52:34;1.45;;;1.02;;
20711;SDS011;10517;50.742;4.224;2023-07-31T07:55:00;0.80;;;0.80;;
20711;SDS011;10517;50.742;4.224;2023-07-31T07:57:26;3.05;;;1.00;;
20711;SDS011;10517;50.742;4.224;2023-07-31T07:59:52;0.80;;;0.80;;
20711;SDS011;10517;50.742;4.224;2023-07-31T08:02:17;0.80;;;0.80;;
20711;SDS011;10517;50.742;4.224;2023-07-31T08:04:43;0.70;;;0.70;;
20711;SDS011;10517;50.742;4.224;2023-07-31T08:07:12;0.85;;;0.85;;
20711;SDS011;10517;50.742;4.224;2023-07-31T08:09:38;0.80;;;0.80;;
20711;SDS011;10517;50.742;4.224;2023-07-31T08:12:04;1.38;;;0.90;;
20711;SDS011;10517;50.742;4.224;2023-07-31T08:14:30;0.77;;;0.77;;
20711;SDS011;10517;50.742;4.224;2023-07-31T08:16:56;3.70;;;1.77;;
20711;SDS011;10517;50.742;4.224;2023-07-31T08:19:22;0.82;;;0.82;;
20711;SDS011;10517;50.742;4.224;2023-07-31T08:21:47;1.13;;;1.13;;
20711;SDS011;10517;50.742;4.224;2023-07-31T08:24:13;1.33;;;1.23;;
20711;SDS011;10517;50.742;4.224;2023-07-31T08:26:38;1.00;;;1.00;;
20711;SDS011;10517;50.742;4.224;2023-07-31T08:29:04;1.30;;;0.82;;
20711;SDS011;10517;50.742;4.224;2023-07-31T08:31:29;4.60;;;1.77;;
20711;SDS011;10517;50.742;4.224;2023-07-31T08:33:56;1.55;;;0.93;;
20711;SDS011;10517;50.742;4.224;2023-07-31T08:36:21;1.08;;;0.98;;
20711;SDS011;10517;50.742;4.224;2023-07-31T08:38:47;1.50;;;1.27;;
20711;SDS011;10517;50.742;4.224;2023-07-31T08:41:13;5.97;;;1.60;;
20711;SDS011;10517;50.742;4.224;2023-07-31T08:43:38;0.80;;;0.80;;
20711;SDS011;10517;50.742;4.224;2023-07-31T08:46:04;1.15;;;1.15;;
20711;SDS011;10517;50.742;4.224;2023-07-31T08:48:30;1.08;;;1.08;;
20711;SDS011;10517;50.742;4.224;2023-07-31T08:50:57;1.38;;;1.27;;
20711;SDS011;10517;50.742;4.224;2023-07-31T08:53:22;0.93;;;0.93;;
20711;SDS011;10517;50.742;4.224;2023-07-31T08:55:48;0.70;;;0.70;;
20711;SDS011;10517;50.742;4.224;2023-07-31T08:58:14;3.40;;;1.50;;
20711;SDS011;10517;50.742;4.224;2023-07-31T09:00:40;0.82;;;0.82;;
20711;SDS011;10517;50.742;4.224;2023-07-31T09:03:09;1.52;;;0.75;;
20711;SDS011;10517;50.742;4.224;2023-07-31T09:05:38;1.00;;;1.00;;
20711;SDS011;10517;50.742;4.224;2023-07-31T09:08:08;0.75;;;0.75;;
20711;SDS011;10517;50.742;4.224;2023-07-31T09:10:35;0.98;;;0.98;;
20711;SDS011;10517;50.742;4.224;2023-07-31T09:13:05;1.00;;;0.90;;
20711;SDS011;10517;50.742;4.224;2023-07-31T09:15:31;0.88;;;0.88;;
20711;SDS011;10517;50.742;4.224;2023-07-31T09:17:58;0.85;;;0.60;;
20711;SDS011;10517;50.742;4.224;2023-07-31T09:20:28;1.55;;;1.40;;
20711;SDS011;10517;50.742;4.224;2023-07-31T09:22:54;1.92;;;1.40;;
20711;SDS011;10517;50.742;4.224;2023-07-31T09:25:21;1.23;;;1.13;;
20711;SDS011;10517;50.742;4.224;2023-07-31T09:30:18;0.80;;;0.80;;
20711;SDS011;10517;50.742;4.224;2023-07-31T09:32:45;0.60;;;0.60;;
20711;SDS011;10517;50.742;4.224;2023-07-31T09:37:50;1.15;;;1.05;;
20711;SDS011;10517;50.742;4.224;2023-07-31T09:40:40;0.75;;;0.75;;
20711;SDS011;10517;50.742;4.224;2023-07-31T09:43:08;0.95;;;0.95;;
20711;SDS011;10517;50.742;4.224;2023-07-31T09:45:39;0.60;;;0.60;;
20711;SDS011;10517;50.742;4.224;2023-07-31T09:48:08;1.05;;;1.05;;
20711;SDS011;10517;50.742;4.224;2023-07-31T09:50:36;0.98;;;0.98;;
20711;SDS011;10517;50.742;4.224;2023-07-31T09:53:03;1.27;;;1.27;;
20711;SDS011;10517;50.742;4.224;2023-07-31T09:55:29;0.82;;;0.82;;
20711;SDS011;10517;50.742;4.224;2023-07-31T09:57:56;0.77;;;0.77;;
20711;SDS011;10517;50.742;4.224;2023-07-31T10:00:23;0.90;;;0.90;;
20711;SDS011;10517;50.742;4.224;2023-07-31T10:02:51;2.83;;;1.15;;
20711;SDS011;10517;50.742;4.224;2023-07-31T10:05:19;0.88;;;0.88;;
20711;SDS011;10517;50.742;4.224;2023-07-31T10:07:49;0.85;;;0.85;;
20711;SDS011;10517;50.742;4.224;2023-07-31T10:10:19;1.13;;;1.13;;
20711;SDS011;10517;50.742;4.224;2023-07-31T10:12:46;2.63;;;1.20;;
20711;SDS011;10517;50.742;4.224;2023-07-31T10:15:13;1.50;;;1.40;;
20711;SDS011;10517;50.742;4.224;2023-07-31T10:17:39;1.30;;;1.23;;
20711;SDS011;10517;50.742;4.224;2023-07-31T10:20:05;0.90;;;0.90;;
20711;SDS011;10517;50.742;4.224;2023-07-31T10:22:32;3.03;;;2.05;;
20711;SDS011;10517;50.742;4.224;2023-07-31T10:24:59;1.08;;;0.98;;
20711;SDS011;10517;50.742;4.224;2023-07-31T10:27:25;1.90;;;1.30;;
20711;SDS011;10517;50.742;4.224;2023-07-31T10:29:52;0.90;;;0.90;;
20711;SDS011;10517;50.742;4.224;2023-07-31T10:32:19;1.67;;;1.58;;
20711;SDS011;10517;50.742;4.224;2023-07-31T10:34:46;1.23;;;1.13;;
20711;SDS011;10517;50.742;4.224;2023-07-31T10:37:20;1.73;;;1.63;;
20711;SDS011;10517;50.742;4.224;2023-07-31T10:42:36;1.13;;;1.13;;
20711;SDS011;10517;50.742;4.224;2023-07-31T10:45:05;4.53;;;1.60;;
20711;SDS011;10517;50.742;4.224;2023-07-31T10:47:37;1.80;;;1.33;;
20711;SDS011;10517;50.742;4.224;2023-07-31T10:50:13;1.65;;;1.55;;
20711;SDS011;10517;50.742;4.224;2023-07-31T10:52:53;1.30;;;1.30;;
20711;SDS011;10517;50.742;4.224;2023-07-31T10:55:27;0.77;;;0.77;;
20711;SDS011;10517;50.742;4.224;2023-07-31T10:58:10;0.98;;;0.80;;
20711;SDS011;10517;50.742;4.224;2023-07-31T11:00:37;1.48;;;0.90;;
20711;SDS011;10517;50.742;4.224;2023-07-31T11:03:05;1.02;;;0.95;;
20711;SDS011;10517;50.742;4.224;2023-07-31T11:08:29;3.13;;;1.67;;
20711;SDS011;10517;50.742;4.224;2023-07-31T11:13:28;1.55;;;1.45;;
20711;SDS011;10517;50.742;4.224;2023-07-31T11:15:58;0.80;;;0.80;;
20711;SDS011;10517;50.742;4.224;2023-07-31T11:18:24;1.10;;;1.10;;
20711;SDS011;10517;50.742;4.224;2023-07-31T11:20:51;5.38;;;1.15;;
20711;SDS011;10517;50.742;4.224;2023-07-31T11:23:17;0.80;;;0.80;;
20711;SDS011;10517;50.742;4.224;2023-07-31T11:25:43;1.95;;;1.17;;
20711;SDS011;10517;50.742;4.224;2023-07-31T11:28:11;1.75;;;1.50;;
20711;SDS011;10517;50.742;4.224;2023-07-31T11:30:38;3.53;;;1.77;;
20711;SDS011;10517;50.742;4.224;2023-07-31T11:33:06;1.17;;;1.17;;
20711;SDS011;10517;50.742;4.224;2023-07-31T11:35:33;2.45;;;0.95;;
20711;SDS011;10517;50.742;4.224;2023-07-31T11:38:00;2.35;;;1.23;;
20711;SDS011;10517;50.742;4.224;2023-07-31T11:40:26;1.00;;;1.00;;
20711;SDS011;10517;50.742;4.224;2023-07-31T11:42:57;1.98;;;1.70;;
20711;SDS011;10517;50.742;4.224;2023-07-31T11:45:24;1.13;;;1.13;;
20711;SDS011;10517;50.742;4.224;2023-07-31T11:47:51;0.98;;;0.98;;
20711;SDS011;10517;50.742;4.224;2023-07-31T11:50:18;0.75;;;0.75;;
20711;SDS011;10517;50.742;4.224;2023-07-31T11:52:44;2.47;;;1.38;;
20711;SDS011;10517;50.742;4.224;2023-07-31T11:55:11;1.42;;;1.33;;
20711;SDS011;10517;50.742;4.224;2023-07-31T11:57:38;2.20;;;2.05;;
20711;SDS011;10517;50.742;4.224;2023-07-31T12:00:06;1.20;;;1.08;;
20711;SDS011;10517;50.742;4.224;2023-07-31T12:02:34;2.15;;;1.95;;
20711;SDS011;10517;50.742;4.224;2023-07-31T12:05:00;3.25;;;1.10;;
20711;SDS011;10517;50.742;4.224;2023-07-31T12:07:27;1.50;;;1.42;;
20711;SDS011;10517;50.742;4.224;2023-07-31T12:09:53;1.10;;;1.10;;
20711;SDS011;10517;50.742;4.224;2023-07-31T12:12:20;1.67;;;1.58;;
20711;SDS011;10517;50.742;4.224;2023-07-31T12:14:47;1.77;;;1.67;;
20711;SDS011;10517;50.742;4.224;2023-07-31T12:17:12;1.02;;;1.00;;
20711;SDS011;10517;50.742;4.224;2023-07-31T12:19:39;3.50;;;2.88;;
20711;SDS011;10517;50.742;4.224;2023-07-31T12:22:14;1.10;;;1.10;;
20711;SDS011;10517;50.742;4.224;2023-07-31T12:24:42;1.50;;;1.40;;
20711;SDS011;10517;50.742;4.224;2023-07-31T12:27:12;2.13;;;2.03;;
20711;SDS011;10517;50.742;4.224;2023-07-31T12:29:40;1.60;;;1.50;;
20711;SDS011;10517;50.742;4.224;2023-07-31T12:32:24;2.10;;;2.00;;
20711;SDS011;10517;50.742;4.224;2023-07-31T12:34:50;1.10;;;1.10;;
20711;SDS011;10517;50.742;4.224;2023-07-31T12:37:16;1.35;;;1.35;;
20711;SDS011;10517;50.742;4.224;2023-07-31T12:39:42;1.27;;;1.25;;
20711;SDS011;10517;50.742;4.224;2023-07-31T12:42:08;2.15;;;1.95;;
20711;SDS011;10517;50.742;4.224;2023-07-31T12:44:33;1.45;;;1.40;;
20711;SDS011;10517;50.742;4.224;2023-07-31T12:46:59;4.43;;;2.63;;
20711;SDS011;10517;50.742;4.224;2023-07-31T12:49:24;4.10;;;2.03;;
20711;SDS011;10517;50.742;4.224;2023-07-31T12:51:50;1.42;;;1.33;;
20711;SDS011;10517;50.742;4.224;2023-07-31T12:54:16;1.13;;;1.10;;
20711;SDS011;10517;50.742;4.224;2023-07-31T12:56:41;1.10;;;1.10;;
20711;SDS011;10517;50.742;4.224;2023-07-31T12:59:07;1.20;;;1.20;;
20711;SDS011;10517;50.742;4.224;2023-07-31T13:01:32;2.92;;;2.60;;
20711;SDS011;10517;50.742;4.224;2023-07-31T13:03:58;1.25;;;1.25;;
20711;SDS011;10517;50.742;4.224;2023-07-31T13:06:24;1.30;;;1.30;;
20711;SDS011;10517;50.742;4.224;2023-07-31T13:08:50;1.23;;;1.15;;
20711;SDS011;10517;50.742;4.224;2023-07-31T13:11:16;1.40;;;1.30;;
20711;SDS011;10517;50.742;4.224;2023-07-31T13:13:41;4.07;;;1.83;;
20711;SDS011;10517;50.742;4.224;2023-07-31T13:16:07;6.20;;;2.08;;
20711;SDS011;10517;50.742;4.224;2023-07-31T13:18:33;2.50;;;2.40;;
20711;SDS011;10517;50.742;4.224;2023-07-31T13:20:58;2.40;;;2.30;;
20711;SDS011;10517;50.742;4.224;2023-07-31T13:23:24;2.30;;;2.20;;
20711;SDS011;10517;50.742;4.224;2023-07-31T13:25:49;2.20;;;2.10;;
20711;SDS011;10517;50.742;4.224;2023-07-31T13:28:15;2.85;;;2.75;;
20711;SDS011;10517;50.742;4.224;2023-07-31T13:30:40;2.85;;;2.75;;
20711;SDS011;10517;50.742;4.224;2023-07-31T13:33:06;3.20;;;3.05;;
20711;SDS011;10517;50.742;4.224;2023-07-31T13:35:32;3.05;;;2.85;;
20711;SDS011;10517;50.742;4.224;2023-07-31T13:37:57;3.35;;;3.15;;
20711;SDS011;10517;50.742;4.224;2023-07-31T13:40:23;3.33;;;3.22;;
20711;SDS011;10517;50.742;4.224;2023-07-31T13:42:48;4.35;;;4.15;;
20711;SDS011;10517;50.742;4.224;2023-07-31T13:45:14;4.80;;;4.60;;
20711;SDS011;10517;50.742;4.224;2023-07-31T13:47:40;4.53;;;4.32;;
20711;SDS011;10517;50.742;4.224;2023-07-31T13:50:05;4.10;;;4.00;;
20711;SDS011;10517;50.742;4.224;2023-07-31T13:52:31;5.63;;;5.10;;
20711;SDS011;10517;50.742;4.224;2023-07-31T13:54:57;5.10;;;4.90;;
20711;SDS011;10517;50.742;4.224;2023-07-31T13:57:22;4.45;;;4.35;;
20711;SDS011;10517;50.742;4.224;2023-07-31T13:59:48;5.22;;;5.03;;
20711;SDS011;10517;50.742;4.224;2023-07-31T14:02:14;4.65;;;3.92;;
20711;SDS011;10517;50.742;4.224;2023-07-31T14:04:40;4.95;;;4.68;;
20711;SDS011;10517;50.742;4.224;2023-07-31T14:07:05;3.85;;;3.75;;
20711;SDS011;10517;50.742;4.224;2023-07-31T14:09:31;5.03;;;4.60;;
20711;SDS011;10517;50.742;4.224;2023-07-31T14:11:57;4.43;;;4.15;;
20711;SDS011;10517;50.742;4.224;2023-07-31T14:14:22;4.28;;;4.18;;
20711;SDS011;10517;50.742;4.224;2023-07-31T14:16:48;4.35;;;4.25;;
20711;SDS011;10517;50.742;4.224;2023-07-31T14:19:13;4.55;;;4.35;;
20711;SDS011;10517;50.742;4.224;2023-07-31T14:21:39;4.68;;;4.57;;
20711;SDS011;10517;50.742;4.224;2023-07-31T14:24:05;3.65;;;3.55;;
20711;SDS011;10517;50.742;4.224;2023-07-31T14:26:30;4.57;;;4.38;;
20711;SDS011;10517;50.742;4.224;2023-07-31T14:28:56;4.80;;;3.88;;
20711;SDS011;10517;50.742;4.224;2023-07-31T14:31:22;4.53;;;4.22;;
20711;SDS011;10517;50.742;4.224;2023-07-31T14:33:47;4.80;;;4.60;;
20711;SDS011;10517;50.742;4.224;2023-07-31T14:36:13;3.72;;;3.63;;
20711;SDS011;10517;50.742;4.224;2023-07-31T14:38:38;3.05;;;2.95;;
20711;SDS011;10517;50.742;4.224;2023-07-31T14:41:04;4.03;;;3.92;;
20711;SDS011;10517;50.742;4.224;2023-07-31T14:43:30;4.47;;;4.18;;
20711;SDS011;10517;50.742;4.224;2023-07-31T14:45:55;3.83;;;3.72;;
20711;SDS011;10517;50.742;4.224;2023-07-31T14:48:24;3.80;;;3.60;;
20711;SDS011;10517;50.742;4.224;2023-07-31T14:50:49;4.28;;;4.18;;
20711;SDS011;10517;50.742;4.224;2023-07-31T14:53:15;4.70;;;4.50;;
20711;SDS011;10517;50.742;4.224;2023-07-31T14:55:41;4.35;;;4.25;;
20711;SDS011;10517;50.742;4.224;2023-07-31T14:58:06;5.65;;;5.45;;
20711;SDS011;10517;50.742;4.224;2023-07-31T15:00:32;5.88;;;5.68;;